sensor_id;sensor_type;location;lat;lon;timestamp;P1;durP1;ratioP1;P2;durP2;ratioP2
14858;SDS011;7521;51.700;6.874;2022-10-13T00:03:00;15.52;;;9.52;;
14858;SDS011;7521;51.700;6.874;2022-10-13T00:06:07;15.40;;;9.60;;
14858;SDS011;7521;51.700;6.874;2022-10-13T00:09:12;17.00;;;9.97;;
14858;SDS011;7521;51.700;6.874;2022-10-13T00:12:17;15.20;;;9.90;;
14858;SDS011;7521;51.700;6.874;2022-10-13T00:15:23;14.93;;;9.43;;
14858;SDS011;7521;51.700;6.874;2022-10-13T00:18:29;11.70;;;9.10;;
14858;SDS011;7521;51.700;6.874;2022-10-13T00:21:35;15.70;;;9.38;;
14858;SDS011;7521;51.700;6.874;2022-10-13T00:24:40;20.08;;;10.10;;
14858;SDS011;7521;51.700;6.874;2022-10-13T00:27:45;15.60;;;10.05;;
14858;SDS011;7521;51.700;6.874;2022-10-13T00:30:50;17.10;;;10.40;;
14858;SDS011;7521;51.700;6.874;2022-10-13T00:33:59;17.08;;;10.38;;
14858;SDS011;7521;51.700;6.874;2022-10-13T00:37:04;17.43;;;10.67;;
14858;SDS011;7521;51.700;6.874;2022-10-13T00:40:10;16.07;;;11.17;;
14858;SDS011;7521;51.700;6.874;2022-10-13T00:43:19;16.33;;;11.47;;
14858;SDS011;7521;51.700;6.874;2022-10-13T00:46:26;21.47;;;12.03;;
14858;SDS011;7521;51.700;6.874;2022-10-13T00:49:32;19.27;;;13.60;;
14858;SDS011;7521;51.700;6.874;2022-10-13T00:52:38;25.90;;;13.87;;
14858;SDS011;7521;51.700;6.874;2022-10-13T00:55:43;20.23;;;14.03;;
14858;SDS011;7521;51.700;6.874;2022-10-13T00:58:49;30.13;;;14.40;;
14858;SDS011;7521;51.700;6.874;2022-10-13T01:01:56;21.93;;;13.97;;
14858;SDS011;7521;51.700;6.874;2022-10-13T01:05:03;22.57;;;13.70;;
14858;SDS011;7521;51.700;6.874;2022-10-13T01:08:09;21.50;;;12.73;;
14858;SDS011;7521;51.700;6.874;2022-10-13T01:14:31;16.37;;;12.73;;
14858;SDS011;7521;51.700;6.874;2022-10-13T01:27:11;24.88;;;13.63;;
14858;SDS011;7521;51.700;6.874;2022-10-13T01:30:19;22.77;;;13.07;;
14858;SDS011;7521;51.700;6.874;2022-10-13T01:33:28;19.50;;;13.07;;
14858;SDS011;7521;51.700;6.874;2022-10-13T01:36:49;19.70;;;13.77;;
14858;SDS011;7521;51.700;6.874;2022-10-13T01:43:28;23.90;;;12.97;;
14858;SDS011;7521;51.700;6.874;2022-10-13T01:46:35;20.63;;;13.10;;
14858;SDS011;7521;51.700;6.874;2022-10-13T01:49:41;20.30;;;13.37;;
14858;SDS011;7521;51.700;6.874;2022-10-13T01:52:47;20.37;;;12.57;;
14858;SDS011;7521;51.700;6.874;2022-10-13T01:55:55;18.93;;;12.47;;
14858;SDS011;7521;51.700;6.874;2022-10-13T01:59:02;20.40;;;13.07;;
14858;SDS011;7521;51.700;6.874;2022-10-13T02:02:11;21.67;;;14.00;;
14858;SDS011;7521;51.700;6.874;2022-10-13T02:12:01;26.33;;;13.80;;
14858;SDS011;7521;51.700;6.874;2022-10-13T02:15:10;22.07;;;12.70;;
14858;SDS011;7521;51.700;6.874;2022-10-13T02:18:18;21.30;;;13.70;;
14858;SDS011;7521;51.700;6.874;2022-10-13T02:21:25;21.00;;;13.00;;
14858;SDS011;7521;51.700;6.874;2022-10-13T02:24:30;23.30;;;14.03;;
14858;SDS011;7521;51.700;6.874;2022-10-13T02:27:36;17.47;;;13.20;;
14858;SDS011;7521;51.700;6.874;2022-10-13T02:30:42;23.33;;;14.13;;
14858;SDS011;7521;51.700;6.874;2022-10-13T02:33:47;18.87;;;12.60;;
14858;SDS011;7521;51.700;6.874;2022-10-13T02:36:52;22.77;;;13.10;;
14858;SDS011;7521;51.700;6.874;2022-10-13T02:39:57;18.80;;;13.05;;
14858;SDS011;7521;51.700;6.874;2022-10-13T02:43:03;20.83;;;13.20;;
14858;SDS011;7521;51.700;6.874;2022-10-13T02:46:08;23.10;;;13.35;;
14858;SDS011;7521;51.700;6.874;2022-10-13T02:49:13;19.80;;;13.13;;
14858;SDS011;7521;51.700;6.874;2022-10-13T02:52:18;16.60;;;12.20;;
14858;SDS011;7521;51.700;6.874;2022-10-13T02:55:23;23.37;;;12.83;;
14858;SDS011;7521;51.700;6.874;2022-10-13T02:58:29;23.03;;;12.73;;
14858;SDS011;7521;51.700;6.874;2022-10-13T03:01:34;20.13;;;13.55;;
14858;SDS011;7521;51.700;6.874;2022-10-13T03:04:45;22.70;;;14.07;;
14858;SDS011;7521;51.700;6.874;2022-10-13T03:07:50;26.20;;;13.20;;
14858;SDS011;7521;51.700;6.874;2022-10-13T03:10:55;22.13;;;13.57;;
14858;SDS011;7521;51.700;6.874;2022-10-13T03:14:01;20.47;;;13.30;;
14858;SDS011;7521;51.700;6.874;2022-10-13T03:17:06;23.77;;;14.33;;
14858;SDS011;7521;51.700;6.874;2022-10-13T03:20:12;20.83;;;13.13;;
14858;SDS011;7521;51.700;6.874;2022-10-13T03:23:17;22.33;;;13.87;;
14858;SDS011;7521;51.700;6.874;2022-10-13T03:26:22;19.42;;;12.88;;
14858;SDS011;7521;51.700;6.874;2022-10-13T03:29:27;23.40;;;13.90;;
14858;SDS011;7521;51.700;6.874;2022-10-13T03:32:32;20.63;;;12.57;;
14858;SDS011;7521;51.700;6.874;2022-10-13T03:35:38;16.27;;;12.40;;
14858;SDS011;7521;51.700;6.874;2022-10-13T03:38:43;20.43;;;13.27;;
14858;SDS011;7521;51.700;6.874;2022-10-13T03:41:48;27.00;;;14.07;;
14858;SDS011;7521;51.700;6.874;2022-10-13T03:44:53;22.20;;;13.23;;
14858;SDS011;7521;51.700;6.874;2022-10-13T03:47:59;19.52;;;13.15;;
14858;SDS011;7521;51.700;6.874;2022-10-13T03:51:08;23.92;;;13.35;;
14858;SDS011;7521;51.700;6.874;2022-10-13T03:54:13;24.80;;;12.90;;
14858;SDS011;7521;51.700;6.874;2022-10-13T03:57:18;20.40;;;13.33;;
14858;SDS011;7521;51.700;6.874;2022-10-13T04:00:24;22.53;;;13.43;;
14858;SDS011;7521;51.700;6.874;2022-10-13T04:03:29;16.75;;;12.93;;
14858;SDS011;7521;51.700;6.874;2022-10-13T04:06:34;22.47;;;14.47;;
14858;SDS011;7521;51.700;6.874;2022-10-13T04:09:40;18.42;;;12.70;;
14858;SDS011;7521;51.700;6.874;2022-10-13T04:12:47;18.57;;;13.20;;
14858;SDS011;7521;51.700;6.874;2022-10-13T04:15:52;21.57;;;13.33;;
14858;SDS011;7521;51.700;6.874;2022-10-13T04:18:58;22.00;;;13.40;;
14858;SDS011;7521;51.700;6.874;2022-10-13T04:22:04;21.07;;;13.73;;
14858;SDS011;7521;51.700;6.874;2022-10-13T04:25:09;23.17;;;13.47;;
14858;SDS011;7521;51.700;6.874;2022-10-13T04:28:18;18.33;;;13.02;;
14858;SDS011;7521;51.700;6.874;2022-10-13T04:31:23;23.43;;;14.30;;
14858;SDS011;7521;51.700;6.874;2022-10-13T04:34:28;21.97;;;14.03;;
14858;SDS011;7521;51.700;6.874;2022-10-13T04:37:34;23.33;;;13.20;;
14858;SDS011;7521;51.700;6.874;2022-10-13T04:40:39;21.65;;;14.07;;
14858;SDS011;7521;51.700;6.874;2022-10-13T04:43:48;21.60;;;13.83;;
14858;SDS011;7521;51.700;6.874;2022-10-13T04:46:53;19.53;;;13.93;;
14858;SDS011;7521;51.700;6.874;2022-10-13T04:49:59;20.13;;;13.53;;
14858;SDS011;7521;51.700;6.874;2022-10-13T04:53:04;18.60;;;13.15;;
14858;SDS011;7521;51.700;6.874;2022-10-13T04:56:11;19.67;;;12.97;;
14858;SDS011;7521;51.700;6.874;2022-10-13T04:59:16;18.33;;;12.27;;
14858;SDS011;7521;51.700;6.874;2022-10-13T05:02:21;20.55;;;12.82;;
14858;SDS011;7521;51.700;6.874;2022-10-13T05:05:26;21.42;;;13.68;;
14858;SDS011;7521;51.700;6.874;2022-10-13T05:08:32;18.95;;;12.60;;
14858;SDS011;7521;51.700;6.874;2022-10-13T05:11:37;23.90;;;13.27;;
14858;SDS011;7521;51.700;6.874;2022-10-13T05:14:43;19.85;;;12.88;;
14858;SDS011;7521;51.700;6.874;2022-10-13T05:17:48;23.27;;;13.27;;
14858;SDS011;7521;51.700;6.874;2022-10-13T05:20:53;22.27;;;12.67;;
14858;SDS011;7521;51.700;6.874;2022-10-13T05:23:58;19.38;;;12.07;;
14858;SDS011;7521;51.700;6.874;2022-10-13T05:27:08;18.90;;;12.80;;
14858;SDS011;7521;51.700;6.874;2022-10-13T05:30:13;16.33;;;12.03;;
14858;SDS011;7521;51.700;6.874;2022-10-13T05:33:18;16.77;;;12.47;;
14858;SDS011;7521;51.700;6.874;2022-10-13T05:36:27;19.65;;;11.85;;
14858;SDS011;7521;51.700;6.874;2022-10-13T05:39:34;21.40;;;12.80;;
14858;SDS011;7521;51.700;6.874;2022-10-13T05:42:39;19.90;;;12.45;;
14858;SDS011;7521;51.700;6.874;2022-10-13T05:45:45;21.93;;;13.00;;
14858;SDS011;7521;51.700;6.874;2022-10-13T05:48:50;23.50;;;13.23;;
14858;SDS011;7521;51.700;6.874;2022-10-13T05:51:56;23.30;;;13.70;;
14858;SDS011;7521;51.700;6.874;2022-10-13T05:55:03;22.30;;;13.17;;
14858;SDS011;7521;51.700;6.874;2022-10-13T05:58:09;23.83;;;12.93;;
14858;SDS011;7521;51.700;6.874;2022-10-13T06:01:16;21.40;;;13.50;;
14858;SDS011;7521;51.700;6.874;2022-10-13T06:04:29;21.00;;;13.53;;
14858;SDS011;7521;51.700;6.874;2022-10-13T06:07:35;20.17;;;12.97;;
14858;SDS011;7521;51.700;6.874;2022-10-13T06:10:40;22.10;;;13.77;;
14858;SDS011;7521;51.700;6.874;2022-10-13T06:13:46;19.33;;;13.20;;
14858;SDS011;7521;51.700;6.874;2022-10-13T06:16:51;18.17;;;12.52;;
14858;SDS011;7521;51.700;6.874;2022-10-13T06:19:56;18.27;;;12.70;;
14858;SDS011;7521;51.700;6.874;2022-10-13T06:23:02;16.80;;;11.77;;
14858;SDS011;7521;51.700;6.874;2022-10-13T06:26:07;19.77;;;12.70;;
14858;SDS011;7521;51.700;6.874;2022-10-13T06:29:13;19.63;;;12.93;;
14858;SDS011;7521;51.700;6.874;2022-10-13T06:32:18;23.13;;;13.33;;
14858;SDS011;7521;51.700;6.874;2022-10-13T06:35:23;21.23;;;13.43;;
14858;SDS011;7521;51.700;6.874;2022-10-13T06:38:29;20.33;;;13.47;;
14858;SDS011;7521;51.700;6.874;2022-10-13T06:41:34;19.70;;;12.90;;
14858;SDS011;7521;51.700;6.874;2022-10-13T06:44:39;20.33;;;12.67;;
14858;SDS011;7521;51.700;6.874;2022-10-13T06:47:44;19.17;;;13.15;;
14858;SDS011;7521;51.700;6.874;2022-10-13T06:50:50;19.23;;;13.10;;
14858;SDS011;7521;51.700;6.874;2022-10-13T06:53:55;23.27;;;13.82;;
14858;SDS011;7521;51.700;6.874;2022-10-13T06:57:00;17.43;;;12.80;;
14858;SDS011;7521;51.700;6.874;2022-10-13T07:00:06;20.77;;;12.93;;
14858;SDS011;7521;51.700;6.874;2022-10-13T07:03:11;18.83;;;12.93;;
14858;SDS011;7521;51.700;6.874;2022-10-13T07:06:17;19.77;;;13.98;;
14858;SDS011;7521;51.700;6.874;2022-10-13T07:09:22;21.13;;;13.07;;
14858;SDS011;7521;51.700;6.874;2022-10-13T07:12:27;21.33;;;14.43;;
14858;SDS011;7521;51.700;6.874;2022-10-13T07:15:32;19.50;;;15.13;;
14858;SDS011;7521;51.700;6.874;2022-10-13T07:18:38;29.57;;;15.57;;
14858;SDS011;7521;51.700;6.874;2022-10-13T07:21:43;23.15;;;15.02;;
14858;SDS011;7521;51.700;6.874;2022-10-13T07:24:48;26.42;;;15.02;;
14858;SDS011;7521;51.700;6.874;2022-10-13T07:27:54;24.37;;;13.77;;
14858;SDS011;7521;51.700;6.874;2022-10-13T07:30:59;19.03;;;11.70;;
14858;SDS011;7521;51.700;6.874;2022-10-13T07:34:04;21.45;;;13.27;;
14858;SDS011;7521;51.700;6.874;2022-10-13T07:37:10;18.50;;;13.87;;
14858;SDS011;7521;51.700;6.874;2022-10-13T07:40:15;19.40;;;13.07;;
14858;SDS011;7521;51.700;6.874;2022-10-13T07:43:21;22.83;;;13.50;;
14858;SDS011;7521;51.700;6.874;2022-10-13T07:46:26;19.50;;;12.82;;
14858;SDS011;7521;51.700;6.874;2022-10-13T07:49:31;20.20;;;13.55;;
14858;SDS011;7521;51.700;6.874;2022-10-13T07:52:36;19.92;;;14.55;;
14858;SDS011;7521;51.700;6.874;2022-10-13T07:55:41;19.57;;;13.10;;
14858;SDS011;7521;51.700;6.874;2022-10-13T07:58:46;22.07;;;13.80;;
14858;SDS011;7521;51.700;6.874;2022-10-13T08:01:52;20.13;;;13.83;;
14858;SDS011;7521;51.700;6.874;2022-10-13T08:04:57;20.37;;;13.17;;
14858;SDS011;7521;51.700;6.874;2022-10-13T08:08:02;23.08;;;13.95;;
14858;SDS011;7521;51.700;6.874;2022-10-13T08:11:10;23.00;;;13.00;;
14858;SDS011;7521;51.700;6.874;2022-10-13T08:14:15;19.97;;;12.77;;
14858;SDS011;7521;51.700;6.874;2022-10-13T08:17:20;22.40;;;14.18;;
14858;SDS011;7521;51.700;6.874;2022-10-13T08:20:26;20.90;;;13.43;;
14858;SDS011;7521;51.700;6.874;2022-10-13T08:23:31;19.83;;;12.63;;
14858;SDS011;7521;51.700;6.874;2022-10-13T08:26:36;19.50;;;12.33;;
14858;SDS011;7521;51.700;6.874;2022-10-13T08:29:42;18.93;;;12.77;;
14858;SDS011;7521;51.700;6.874;2022-10-13T08:32:47;16.73;;;12.17;;
14858;SDS011;7521;51.700;6.874;2022-10-13T08:35:52;19.17;;;13.15;;
14858;SDS011;7521;51.700;6.874;2022-10-13T08:38:57;21.00;;;13.30;;
14858;SDS011;7521;51.700;6.874;2022-10-13T08:42:10;19.95;;;11.82;;
14858;SDS011;7521;51.700;6.874;2022-10-13T08:45:19;20.23;;;12.97;;
14858;SDS011;7521;51.700;6.874;2022-10-13T08:48:26;19.33;;;12.47;;
14858;SDS011;7521;51.700;6.874;2022-10-13T08:51:34;16.83;;;12.10;;
14858;SDS011;7521;51.700;6.874;2022-10-13T08:54:40;17.87;;;12.33;;
14858;SDS011;7521;51.700;6.874;2022-10-13T08:57:45;19.65;;;12.93;;
14858;SDS011;7521;51.700;6.874;2022-10-13T09:01:33;20.40;;;13.23;;
14858;SDS011;7521;51.700;6.874;2022-10-13T09:04:32;24.83;;;14.00;;
14858;SDS011;7521;51.700;6.874;2022-10-13T09:07:40;19.70;;;12.53;;
14858;SDS011;7521;51.700;6.874;2022-10-13T09:10:46;22.00;;;13.00;;
14858;SDS011;7521;51.700;6.874;2022-10-13T09:13:52;23.27;;;12.83;;
14858;SDS011;7521;51.700;6.874;2022-10-13T09:17:12;19.37;;;13.10;;
14858;SDS011;7521;51.700;6.874;2022-10-13T09:20:19;19.77;;;12.67;;
14858;SDS011;7521;51.700;6.874;2022-10-13T09:23:24;21.93;;;12.30;;
14858;SDS011;7521;51.700;6.874;2022-10-13T09:26:31;27.80;;;14.53;;
14858;SDS011;7521;51.700;6.874;2022-10-13T09:29:42;17.87;;;12.63;;
14858;SDS011;7521;51.700;6.874;2022-10-13T09:32:47;24.73;;;13.40;;
14858;SDS011;7521;51.700;6.874;2022-10-13T09:39:05;19.93;;;11.57;;
14858;SDS011;7521;51.700;6.874;2022-10-13T09:42:17;21.50;;;12.87;;
14858;SDS011;7521;51.700;6.874;2022-10-13T09:45:23;21.60;;;12.57;;
14858;SDS011;7521;51.700;6.874;2022-10-13T09:48:30;22.10;;;12.83;;
14858;SDS011;7521;51.700;6.874;2022-10-13T09:51:40;20.70;;;12.47;;
14858;SDS011;7521;51.700;6.874;2022-10-13T09:54:47;20.10;;;11.27;;
14858;SDS011;7521;51.700;6.874;2022-10-13T09:57:53;19.73;;;11.97;;
14858;SDS011;7521;51.700;6.874;2022-10-13T10:01:00;18.70;;;12.20;;
14858;SDS011;7521;51.700;6.874;2022-10-13T10:04:06;17.10;;;11.73;;
14858;SDS011;7521;51.700;6.874;2022-10-13T10:07:17;20.83;;;12.50;;
14858;SDS011;7521;51.700;6.874;2022-10-13T10:10:31;21.17;;;11.13;;
14858;SDS011;7521;51.700;6.874;2022-10-13T10:13:38;20.73;;;10.77;;
14858;SDS011;7521;51.700;6.874;2022-10-13T10:16:44;19.55;;;10.38;;
14858;SDS011;7521;51.700;6.874;2022-10-13T10:22:58;14.73;;;9.87;;
14858;SDS011;7521;51.700;6.874;2022-10-13T10:26:22;15.30;;;9.33;;
14858;SDS011;7521;51.700;6.874;2022-10-13T10:32:53;17.10;;;9.60;;
14858;SDS011;7521;51.700;6.874;2022-10-13T10:36:07;15.93;;;8.83;;
14858;SDS011;7521;51.700;6.874;2022-10-13T10:39:31;15.67;;;9.13;;
14858;SDS011;7521;51.700;6.874;2022-10-13T10:42:52;16.97;;;8.40;;
14858;SDS011;7521;51.700;6.874;2022-10-13T10:46:01;16.10;;;8.70;;
14858;SDS011;7521;51.700;6.874;2022-10-13T10:49:11;17.83;;;8.07;;
14858;SDS011;7521;51.700;6.874;2022-10-13T10:52:26;13.97;;;8.50;;
14858;SDS011;7521;51.700;6.874;2022-10-13T11:09:02;9.53;;;7.77;;
14858;SDS011;7521;51.700;6.874;2022-10-13T11:15:28;14.43;;;8.07;;
14858;SDS011;7521;51.700;6.874;2022-10-13T11:18:57;15.90;;;7.27;;
14858;SDS011;7521;51.700;6.874;2022-10-13T11:22:15;12.90;;;6.93;;
14858;SDS011;7521;51.700;6.874;2022-10-13T11:31:50;12.83;;;6.73;;
14858;SDS011;7521;51.700;6.874;2022-10-13T11:34:56;11.03;;;7.37;;
14858;SDS011;7521;51.700;6.874;2022-10-13T11:38:04;11.17;;;6.60;;
14858;SDS011;7521;51.700;6.874;2022-10-13T11:41:12;8.50;;;6.23;;
14858;SDS011;7521;51.700;6.874;2022-10-13T11:51:09;10.23;;;6.97;;
14858;SDS011;7521;51.700;6.874;2022-10-13T11:57:23;12.20;;;7.07;;
14858;SDS011;7521;51.700;6.874;2022-10-13T12:00:29;11.57;;;6.97;;
14858;SDS011;7521;51.700;6.874;2022-10-13T12:03:35;17.70;;;7.20;;
14858;SDS011;7521;51.700;6.874;2022-10-13T12:06:41;13.83;;;7.17;;
14858;SDS011;7521;51.700;6.874;2022-10-13T12:09:50;11.63;;;7.03;;
14858;SDS011;7521;51.700;6.874;2022-10-13T12:12:55;12.40;;;6.50;;
14858;SDS011;7521;51.700;6.874;2022-10-13T12:16:02;13.40;;;7.20;;
14858;SDS011;7521;51.700;6.874;2022-10-13T12:19:20;12.83;;;6.27;;
14858;SDS011;7521;51.700;6.874;2022-10-13T12:22:26;11.50;;;6.37;;
14858;SDS011;7521;51.700;6.874;2022-10-13T12:25:31;8.37;;;6.20;;
14858;SDS011;7521;51.700;6.874;2022-10-13T12:28:54;9.63;;;5.97;;
14858;SDS011;7521;51.700;6.874;2022-10-13T12:31:59;13.53;;;6.47;;
14858;SDS011;7521;51.700;6.874;2022-10-13T12:38:22;12.30;;;6.50;;
14858;SDS011;7521;51.700;6.874;2022-10-13T12:41:28;10.70;;;6.10;;
14858;SDS011;7521;51.700;6.874;2022-10-13T12:44:34;15.90;;;7.07;;
14858;SDS011;7521;51.700;6.874;2022-10-13T12:50:48;10.73;;;6.93;;
14858;SDS011;7521;51.700;6.874;2022-10-13T12:53:53;11.43;;;6.57;;
14858;SDS011;7521;51.700;6.874;2022-10-13T12:57:03;12.53;;;5.93;;
14858;SDS011;7521;51.700;6.874;2022-10-13T13:03:25;8.40;;;5.30;;
14858;SDS011;7521;51.700;6.874;2022-10-13T13:06:33;8.60;;;5.60;;
14858;SDS011;7521;51.700;6.874;2022-10-13T13:09:38;8.97;;;5.73;;
14858;SDS011;7521;51.700;6.874;2022-10-13T13:12:46;13.97;;;5.93;;
14858;SDS011;7521;51.700;6.874;2022-10-13T13:15:51;9.37;;;5.90;;
14858;SDS011;7521;51.700;6.874;2022-10-13T13:18:57;6.40;;;5.03;;
14858;SDS011;7521;51.700;6.874;2022-10-13T13:22:03;7.68;;;5.72;;
14858;SDS011;7521;51.700;6.874;2022-10-13T13:25:08;9.33;;;5.33;;
14858;SDS011;7521;51.700;6.874;2022-10-13T13:28:14;7.00;;;5.03;;
14858;SDS011;7521;51.700;6.874;2022-10-13T13:31:21;7.40;;;4.70;;
14858;SDS011;7521;51.700;6.874;2022-10-13T13:34:26;10.50;;;5.50;;
14858;SDS011;7521;51.700;6.874;2022-10-13T13:37:39;11.02;;;6.22;;
14858;SDS011;7521;51.700;6.874;2022-10-13T13:40:45;9.97;;;6.47;;
14858;SDS011;7521;51.700;6.874;2022-10-13T13:43:50;11.40;;;6.20;;
14858;SDS011;7521;51.700;6.874;2022-10-13T13:46:55;10.20;;;6.57;;
14858;SDS011;7521;51.700;6.874;2022-10-13T13:50:00;8.60;;;5.73;;
14858;SDS011;7521;51.700;6.874;2022-10-13T13:53:05;8.60;;;5.97;;
14858;SDS011;7521;51.700;6.874;2022-10-13T13:56:15;9.20;;;6.67;;
14858;SDS011;7521;51.700;6.874;2022-10-13T13:59:20;12.10;;;6.73;;
14858;SDS011;7521;51.700;6.874;2022-10-13T14:02:25;13.93;;;7.03;;
14858;SDS011;7521;51.700;6.874;2022-10-13T14:05:31;11.17;;;6.93;;
14858;SDS011;7521;51.700;6.874;2022-10-13T14:08:36;10.25;;;6.57;;
14858;SDS011;7521;51.700;6.874;2022-10-13T14:11:45;11.50;;;6.73;;
14858;SDS011;7521;51.700;6.874;2022-10-13T14:14:50;12.18;;;6.63;;
14858;SDS011;7521;51.700;6.874;2022-10-13T14:17:56;9.93;;;7.00;;
14858;SDS011;7521;51.700;6.874;2022-10-13T14:21:04;11.40;;;6.63;;
14858;SDS011;7521;51.700;6.874;2022-10-13T14:24:09;12.57;;;7.37;;
14858;SDS011;7521;51.700;6.874;2022-10-13T14:27:15;10.93;;;6.50;;
14858;SDS011;7521;51.700;6.874;2022-10-13T14:30:20;9.67;;;6.90;;
14858;SDS011;7521;51.700;6.874;2022-10-13T14:33:25;12.32;;;8.13;;
14858;SDS011;7521;51.700;6.874;2022-10-13T14:36:30;12.32;;;7.63;;
14858;SDS011;7521;51.700;6.874;2022-10-13T14:39:35;16.38;;;7.72;;
14858;SDS011;7521;51.700;6.874;2022-10-13T14:42:41;12.23;;;7.95;;
14858;SDS011;7521;51.700;6.874;2022-10-13T14:45:46;13.60;;;7.60;;
14858;SDS011;7521;51.700;6.874;2022-10-13T14:48:51;12.15;;;7.88;;
14858;SDS011;7521;51.700;6.874;2022-10-13T14:51:56;15.45;;;8.23;;
14858;SDS011;7521;51.700;6.874;2022-10-13T14:55:02;9.80;;;7.43;;
14858;SDS011;7521;51.700;6.874;2022-10-13T14:58:07;11.60;;;7.53;;
14858;SDS011;7521;51.700;6.874;2022-10-13T15:01:13;11.97;;;8.57;;
14858;SDS011;7521;51.700;6.874;2022-10-13T15:04:18;15.80;;;10.83;;
14858;SDS011;7521;51.700;6.874;2022-10-13T15:07:23;15.15;;;10.30;;
14858;SDS011;7521;51.700;6.874;2022-10-13T15:10:28;14.27;;;10.70;;
14858;SDS011;7521;51.700;6.874;2022-10-13T15:13:34;15.33;;;12.73;;
14858;SDS011;7521;51.700;6.874;2022-10-13T15:16:40;20.33;;;10.77;;
14858;SDS011;7521;51.700;6.874;2022-10-13T15:19:45;15.27;;;9.97;;
14858;SDS011;7521;51.700;6.874;2022-10-13T15:22:50;16.83;;;10.63;;
14858;SDS011;7521;51.700;6.874;2022-10-13T15:25:58;16.90;;;12.13;;
14858;SDS011;7521;51.700;6.874;2022-10-13T15:29:03;18.67;;;9.67;;
14858;SDS011;7521;51.700;6.874;2022-10-13T15:32:10;13.53;;;9.27;;
14858;SDS011;7521;51.700;6.874;2022-10-13T15:35:15;15.63;;;10.50;;
14858;SDS011;7521;51.700;6.874;2022-10-13T15:38:21;14.30;;;9.60;;
14858;SDS011;7521;51.700;6.874;2022-10-13T15:41:26;16.83;;;9.80;;
14858;SDS011;7521;51.700;6.874;2022-10-13T15:44:31;15.93;;;11.10;;
14858;SDS011;7521;51.700;6.874;2022-10-13T15:47:37;13.33;;;9.70;;
14858;SDS011;7521;51.700;6.874;2022-10-13T15:50:42;16.30;;;11.00;;
14858;SDS011;7521;51.700;6.874;2022-10-13T15:53:47;14.38;;;10.43;;
14858;SDS011;7521;51.700;6.874;2022-10-13T15:56:52;12.53;;;9.47;;
14858;SDS011;7521;51.700;6.874;2022-10-13T15:59:57;15.02;;;10.55;;
14858;SDS011;7521;51.700;6.874;2022-10-13T16:03:03;15.77;;;9.93;;
14858;SDS011;7521;51.700;6.874;2022-10-13T16:06:09;14.87;;;9.50;;
14858;SDS011;7521;51.700;6.874;2022-10-13T16:09:15;14.77;;;10.27;;
14858;SDS011;7521;51.700;6.874;2022-10-13T16:12:21;13.95;;;10.55;;
14858;SDS011;7521;51.700;6.874;2022-10-13T16:15:28;14.33;;;10.00;;
14858;SDS011;7521;51.700;6.874;2022-10-13T16:18:34;14.77;;;10.83;;
14858;SDS011;7521;51.700;6.874;2022-10-13T16:21:40;13.53;;;10.00;;
14858;SDS011;7521;51.700;6.874;2022-10-13T16:24:45;12.82;;;10.07;;
14858;SDS011;7521;51.700;6.874;2022-10-13T16:27:50;14.93;;;11.15;;
14858;SDS011;7521;51.700;6.874;2022-10-13T16:30:55;15.77;;;10.90;;
14858;SDS011;7521;51.700;6.874;2022-10-13T16:34:01;14.57;;;11.07;;
14858;SDS011;7521;51.700;6.874;2022-10-13T16:37:06;19.53;;;13.13;;
14858;SDS011;7521;51.700;6.874;2022-10-13T16:40:11;15.97;;;11.87;;
14858;SDS011;7521;51.700;6.874;2022-10-13T16:43:16;16.15;;;12.52;;
14858;SDS011;7521;51.700;6.874;2022-10-13T16:46:21;16.13;;;12.85;;
14858;SDS011;7521;51.700;6.874;2022-10-13T16:49:27;15.03;;;13.43;;
14858;SDS011;7521;51.700;6.874;2022-10-13T16:52:32;18.55;;;14.68;;
14858;SDS011;7521;51.700;6.874;2022-10-13T16:55:40;17.10;;;13.30;;
14858;SDS011;7521;51.700;6.874;2022-10-13T16:58:45;20.03;;;17.13;;
14858;SDS011;7521;51.700;6.874;2022-10-13T17:01:51;21.13;;;15.03;;
14858;SDS011;7521;51.700;6.874;2022-10-13T17:04:58;19.20;;;13.43;;
14858;SDS011;7521;51.700;6.874;2022-10-13T17:08:03;17.87;;;13.57;;
14858;SDS011;7521;51.700;6.874;2022-10-13T17:11:09;19.97;;;13.33;;
14858;SDS011;7521;51.700;6.874;2022-10-13T17:14:18;17.10;;;12.53;;
14858;SDS011;7521;51.700;6.874;2022-10-13T17:17:24;15.07;;;13.37;;
14858;SDS011;7521;51.700;6.874;2022-10-13T17:20:30;15.27;;;13.13;;
14858;SDS011;7521;51.700;6.874;2022-10-13T17:23:36;19.83;;;15.55;;
14858;SDS011;7521;51.700;6.874;2022-10-13T17:26:41;19.40;;;14.73;;
14858;SDS011;7521;51.700;6.874;2022-10-13T17:29:46;19.90;;;15.30;;
14858;SDS011;7521;51.700;6.874;2022-10-13T17:32:51;18.53;;;14.07;;
14858;SDS011;7521;51.700;6.874;2022-10-13T17:36:00;17.33;;;15.43;;
14858;SDS011;7521;51.700;6.874;2022-10-13T17:39:06;22.83;;;16.43;;
14858;SDS011;7521;51.700;6.874;2022-10-13T17:42:11;27.20;;;17.97;;
14858;SDS011;7521;51.700;6.874;2022-10-13T17:45:17;24.58;;;18.65;;
14858;SDS011;7521;51.700;6.874;2022-10-13T17:48:22;26.25;;;18.63;;
14858;SDS011;7521;51.700;6.874;2022-10-13T17:51:27;24.53;;;18.77;;
14858;SDS011;7521;51.700;6.874;2022-10-13T17:54:32;20.33;;;16.53;;
14858;SDS011;7521;51.700;6.874;2022-10-13T17:57:37;19.00;;;16.85;;
14858;SDS011;7521;51.700;6.874;2022-10-13T18:00:43;23.90;;;17.40;;
14858;SDS011;7521;51.700;6.874;2022-10-13T18:03:49;23.75;;;19.08;;
14858;SDS011;7521;51.700;6.874;2022-10-13T18:06:54;20.83;;;16.90;;
14858;SDS011;7521;51.700;6.874;2022-10-13T18:09:59;21.40;;;17.83;;
14858;SDS011;7521;51.700;6.874;2022-10-13T18:13:04;23.67;;;18.15;;
14858;SDS011;7521;51.700;6.874;2022-10-13T18:16:11;21.98;;;17.40;;
14858;SDS011;7521;51.700;6.874;2022-10-13T18:19:16;20.83;;;18.23;;
14858;SDS011;7521;51.700;6.874;2022-10-13T18:22:21;23.08;;;18.50;;
14858;SDS011;7521;51.700;6.874;2022-10-13T18:25:27;25.92;;;18.85;;
14858;SDS011;7521;51.700;6.874;2022-10-13T18:28:33;24.40;;;18.63;;
14858;SDS011;7521;51.700;6.874;2022-10-13T18:31:38;22.77;;;17.83;;
14858;SDS011;7521;51.700;6.874;2022-10-13T18:34:44;24.77;;;19.60;;
14858;SDS011;7521;51.700;6.874;2022-10-13T18:37:50;24.05;;;19.40;;
14858;SDS011;7521;51.700;6.874;2022-10-13T18:40:57;22.73;;;18.30;;
14858;SDS011;7521;51.700;6.874;2022-10-13T18:44:03;24.97;;;19.77;;
14858;SDS011;7521;51.700;6.874;2022-10-13T18:47:08;24.63;;;20.47;;
14858;SDS011;7521;51.700;6.874;2022-10-13T18:50:13;23.50;;;18.25;;
14858;SDS011;7521;51.700;6.874;2022-10-13T18:53:20;31.87;;;21.03;;
14858;SDS011;7521;51.700;6.874;2022-10-13T18:56:26;27.63;;;21.23;;
14858;SDS011;7521;51.700;6.874;2022-10-13T18:59:31;27.30;;;20.10;;
14858;SDS011;7521;51.700;6.874;2022-10-13T19:02:42;24.83;;;19.93;;
14858;SDS011;7521;51.700;6.874;2022-10-13T19:05:47;29.30;;;19.02;;
14858;SDS011;7521;51.700;6.874;2022-10-13T19:08:55;22.05;;;18.35;;
14858;SDS011;7521;51.700;6.874;2022-10-13T19:12:00;25.13;;;18.80;;
14858;SDS011;7521;51.700;6.874;2022-10-13T19:15:05;21.48;;;18.30;;
14858;SDS011;7521;51.700;6.874;2022-10-13T19:18:11;23.43;;;18.57;;
14858;SDS011;7521;51.700;6.874;2022-10-13T19:21:17;24.87;;;18.83;;
14858;SDS011;7521;51.700;6.874;2022-10-13T19:24:22;22.70;;;19.97;;
14858;SDS011;7521;51.700;6.874;2022-10-13T19:27:27;27.15;;;19.75;;
14858;SDS011;7521;51.700;6.874;2022-10-13T19:30:32;26.87;;;19.80;;
14858;SDS011;7521;51.700;6.874;2022-10-13T19:33:38;29.30;;;21.02;;
14858;SDS011;7521;51.700;6.874;2022-10-13T19:36:46;25.93;;;19.73;;
14858;SDS011;7521;51.700;6.874;2022-10-13T19:39:51;30.20;;;20.37;;
14858;SDS011;7521;51.700;6.874;2022-10-13T19:42:56;29.77;;;20.55;;
14858;SDS011;7521;51.700;6.874;2022-10-13T19:46:02;24.23;;;20.40;;
14858;SDS011;7521;51.700;6.874;2022-10-13T19:49:10;29.80;;;21.70;;